Time;durP1;ratioP1;P1;durP2;ratioP2;P2;SDS_P1;SDS_P2;PMS_P1;PMS_P2;Temp;Humidity;BMP_temperature;BMP_pressure;BME280_temperature;BME280_humidity;BME280_pressure;Samples;Min_cycle;Max_cycle;Signal;HPM_P1;HPM_P2
2021/08/05 00:00:14;;;;;;;;;;;;;;;13.99;100.00;95486.72;1049299;28;20387;-65
2021/08/05 00:00:44;;;;;;;;;;;;;;;14.00;100.00;95485.63;1049483;28;19912;-64
2021/08/05 00:01:15;;;;;;;;;;;;;;;13.97;100.00;95478.97;1049283;28;19965;-64
2021/08/05 00:01:45;;;;;;;;;;;;;;;13.93;100.00;95482.56;1049374;28;19915;-65
2021/08/05 00:02:15;;;;;;;;;;;;;;;13.92;100.00;95487.16;1049073;28;19920;-65
2021/08/05 00:02:46;;;;;;;;;;;;;;;13.92;100.00;95487.16;1049150;28;19918;-65
2021/08/05 00:03:16;;;;;;;;;;;;;;;13.91;100.00;95490.91;1049273;28;19920;-64
2021/08/05 00:03:46;;;;;;;;;;;;;;;13.90;100.00;95483.16;1049395;28;20428;-65
2021/08/05 00:04:17;;;;;;;;;;;;;;;13.89;100.00;95490.44;1048511;28;20570;-65
2021/08/05 00:04:47;;;;;;;;;;;;;;;13.87;100.00;95486.44;1048468;28;19932;-65
2021/08/05 00:05:17;;;;;;;;;;;;;;;13.85;100.00;95491.34;1049014;28;20041;-65
2021/08/05 00:05:48;;;;;;;;;;;;;;;13.83;100.00;95486.28;1049337;28;19916;-65
2021/08/05 00:06:18;;;;;;;;;;;;;;;13.83;100.00;95486.28;1044801;28;19919;-65
2021/08/05 00:06:48;;;;;;;;;;;;;;;13.82;100.00;95489.25;1044879;28;19986;-64
2021/08/05 00:07:18;;;;;;;;;;;;;;;13.82;100.00;95484.69;1044818;28;20320;-65
2021/08/05 00:07:49;;;;;;;;;;;;;;;13.81;100.00;95480.41;1044842;28;20389;-65
2021/08/05 00:08:19;;;;;;;;;;;;;;;13.82;100.00;95479.31;1049401;28;19918;-64
2021/08/05 00:08:49;;;;;;;;;;;;;;;13.83;100.00;95485.50;1050336;28;19960;-65
2021/08/05 00:09:20;;;;;;;;;;;;;;;13.84;100.00;95487.84;1050371;28;19917;-65
2021/08/05 00:09:50;;;;;;;;;;;;;;;13.84;100.00;95482.50;1053172;28;19995;-64
2021/08/05 00:10:20;;;;;;;;;;;;;;;13.84;100.00;95481.69;1048990;28;19915;-65
2021/08/05 00:10:50;;;;;;;;;;;;;;;13.84;100.00;95482.50;1044687;28;20436;-65
2021/08/05 00:11:21;;;;;;;;;;;;;;;13.84;100.00;95479.81;1044833;28;19916;-65
2021/08/05 00:11:51;;;;;;;;;;;;;;;13.82;100.00;95481.19;1044951;28;19913;-65
2021/08/05 00:12:21;;;;;;;;;;;;;;;13.82;100.00;95479.31;1049303;28;19942;-65
2021/08/05 00:12:52;;;;;;;;;;;;;;;13.79;100.00;95477.22;1049266;28;19917;-65
2021/08/05 00:13:22;;;;;;;;;;;;;;;13.78;100.00;95483.69;1049185;28;19940;-65
2021/08/05 00:13:52;;;;;;;;;;;;;;;13.77;100.00;95480.22;1049297;28;19913;-65
2021/08/05 00:14:22;;;;;;;;;;;;;;;13.79;100.00;95485.28;1049362;28;20345;-65
2021/08/05 00:14:53;;;;;;;;;;;;;;;13.79;100.00;95479.91;1049378;28;20537;-65
2021/08/05 00:15:23;;;;;;;;;;;;;;;13.79;100.00;95487.97;1049350;28;20342;-65
2021/08/05 00:15:53;;;;;;;;;;;;;;;13.79;100.00;95482.59;1049260;28;19944;-64
2021/08/05 00:16:24;;;;;;;;;;;;;;;13.80;100.00;95486.88;1049342;28;19908;-64
2021/08/05 00:16:54;;;;;;;;;;;;;;;13.80;100.00;95486.88;1049089;28;20277;-65
2021/08/05 00:17:24;;;;;;;;;;;;;;;13.79;100.00;95483.41;1047274;28;19909;-65
2021/08/05 00:17:54;;;;;;;;;;;;;;;13.79;100.00;95478.03;1049227;28;19915;-64
2021/08/05 00:18:25;;;;;;;;;;;;;;;13.80;100.00;95492.25;1049342;28;19936;-65
2021/08/05 00:18:55;;;;;;;;;;;;;;;13.81;100.00;95482.28;1049269;28;19908;-65
2021/08/05 00:19:25;;;;;;;;;;;;;;;13.81;100.00;95483.09;1049339;28;19905;-64
2021/08/05 00:19:56;;;;;;;;;;;;;;;13.81;100.00;95482.28;1049186;28;20005;-64
2021/08/05 00:20:26;;;;;;;;;;;;;;;13.80;100.00;95473.44;1049016;28;19920;-64
2021/08/05 00:20:56;;;;;;;;;;;;;;;13.79;100.00;95475.34;1044817;28;19913;-64
2021/08/05 00:21:26;;;;;;;;;;;;;;;13.79;100.00;95480.72;1044853;28;19954;-64
2021/08/05 00:21:57;;;;;;;;;;;;;;;13.81;100.00;95476.91;1044810;28;19913;-65
2021/08/05 00:22:27;;;;;;;;;;;;;;;13.82;100.00;95475.81;1044757;28;20007;-64
2021/08/05 00:22:57;;;;;;;;;;;;;;;13.82;100.00;95478.50;1049335;28;19927;-65
2021/08/05 00:23:28;;;;;;;;;;;;;;;13.84;100.00;95479.00;1049323;28;20313;-65
2021/08/05 00:23:58;;;;;;;;;;;;;;;13.84;100.00;95487.84;1049302;28;19915;-65
2021/08/05 00:24:29;;;;;;;;;;;;;;;13.85;100.00;95491.34;1049315;28;19962;-65
2021/08/05 00:24:59;;;;;;;;;;;;;;;13.85;100.00;95483.28;1049372;28;19908;-65
2021/08/05 00:25:29;;;;;;;;;;;;;;;13.85;100.00;95486.75;1048931;28;19958;-64
2021/08/05 00:25:59;;;;;;;;;;;;;;;13.82;100.00;95483.88;1049240;28;19912;-65
2021/08/05 00:26:30;;;;;;;;;;;;;;;13.83;100.00;95480.91;1049352;28;19940;-65
2021/08/05 00:27:00;;;;;;;;;;;;;;;13.83;100.00;95483.59;1049380;28;19909;-62
2021/08/05 00:27:30;;;;;;;;;;;;;;;13.83;100.00;95480.13;1048930;28;20022;-64
2021/08/05 00:28:00;;;;;;;;;;;;;;;13.81;100.00;95493.03;1049313;28;19912;-64
2021/08/05 00:28:33;;;;;;;;;;;;;;;13.75;100.00;95484.28;1049202;28;19989;-63
2021/08/05 00:29:03;;;;;;;;;;;;;;;13.78;100.00;95483.69;1049386;28;19913;-63
2021/08/05 00:29:33;;;;;;;;;;;;;;;13.76;100.00;95488.56;1049263;28;19916;-64
2021/08/05 00:30:04;;;;;;;;;;;;;;;13.79;100.00;95491.44;1049283;28;20223;-64
2021/08/05 00:30:34;;;;;;;;;;;;;;;13.78;100.00;95483.69;1049384;28;20003;-64
2021/08/05 00:31:05;;;;;;;;;;;;;;;13.77;100.00;95482.91;1044958;28;21467;-64
2021/08/05 00:31:35;;;;;;;;;;;;;;;13.77;100.00;95484.81;1045130;28;19917;-64
2021/08/05 00:32:06;;;;;;;;;;;;;;;13.74;100.00;95483.50;1045042;28;19923;-64
2021/08/05 00:32:36;;;;;;;;;;;;;;;13.71;100.00;95481.41;1046130;28;19974;-64
2021/08/05 00:33:06;;;;;;;;;;;;;;;13.72;100.00;95480.34;1051506;28;20018;-64
2021/08/05 00:33:36;;;;;;;;;;;;;;;13.73;100.00;95483.81;1046008;28;20378;-64
2021/08/05 00:34:07;;;;;;;;;;;;;;;13.73;100.00;95479.25;1046232;28;19944;-65
2021/08/05 00:34:37;;;;;;;;;;;;;;;13.75;100.00;95489.66;1045773;28;19934;-64
2021/08/05 00:35:07;;;;;;;;;;;;;;;13.76;100.00;95480.50;1046174;28;20401;-64
2021/08/05 00:35:38;;;;;;;;;;;;;;;13.76;100.00;95481.28;1050473;28;19917;-64
2021/08/05 00:36:08;;;;;;;;;;;;;;;13.72;100.00;95485.72;1050915;28;19947;-64
2021/08/05 00:36:38;;;;;;;;;;;;;;;13.72;100.00;95485.72;1051299;28;20086;-64
2021/08/05 00:37:08;;;;;;;;;;;;;;;13.73;100.00;95478.44;1051538;28;19927;-65
2021/08/05 00:37:39;;;;;;;;;;;;;;;13.71;100.00;95481.41;1050660;28;19916;-63
2021/08/05 00:38:09;;;;;;;;;;;;;;;13.72;100.00;95474.97;1051183;28;20381;-63
2021/08/05 00:38:39;;;;;;;;;;;;;;;13.71;100.00;95483.31;1051082;28;19920;-64
2021/08/05 00:39:10;;;;;;;;;;;;;;;13.74;100.00;95483.50;1051349;28;19913;-64
2021/08/05 00:39:40;;;;;;;;;;;;;;;13.69;100.00;95486.31;1050836;28;19940;-64
2021/08/05 00:40:10;;;;;;;;;;;;;;;13.70;100.00;95482.50;1050922;28;19912;-63
2021/08/05 00:40:41;;;;;;;;;;;;;;;13.72;100.00;95482.22;1050738;28;19917;-64
2021/08/05 00:41:12;;;;;;;;;;;;;;;13.72;100.00;95477.66;1051381;28;19976;-64
2021/08/05 00:41:43;;;;;;;;;;;;;;;13.71;100.00;95475.25;1051010;28;19935;-63
2021/08/05 00:42:13;;;;;;;;;;;;;;;13.72;100.00;95484.91;1050907;28;19962;-63
2021/08/05 00:42:44;;;;;;;;;;;;;;;13.72;100.00;95480.34;1050853;28;20088;-63
2021/08/05 00:43:14;;;;;;;;;;;;;;;13.71;100.00;95489.47;1051061;28;19909;-64
2021/08/05 00:43:44;;;;;;;;;;;;;;;13.71;100.00;95483.31;1051035;28;19923;-64
2021/08/05 00:44:14;;;;;;;;;;;;;;;13.70;100.00;95481.72;1050979;28;19948;-66
2021/08/05 00:44:45;;;;;;;;;;;;;;;13.69;100.00;95486.31;1047371;28;19913;-63
2021/08/05 00:45:16;;;;;;;;;;;;;;;13.70;100.00;95487.09;1046513;28;19948;-63
2021/08/05 00:45:46;;;;;;;;;;;;;;;13.71;100.00;95478.72;1046291;28;20015;-63
2021/08/05 00:46:16;;;;;;;;;;;;;;;13.73;100.00;95483.81;1046980;28;20316;-63
2021/08/05 00:46:47;;;;;;;;;;;;;;;13.74;100.00;95485.41;1050881;28;20372;-63
2021/08/05 00:47:17;;;;;;;;;;;;;;;13.73;100.00;95481.13;1050914;28;20234;-63
2021/08/05 00:47:47;;;;;;;;;;;;;;;13.72;100.00;95476.88;1051199;28;19943;-63
2021/08/05 00:48:18;;;;;;;;;;;;;;;13.73;100.00;95479.25;1050740;28;19940;-64
2021/08/05 00:48:48;;;;;;;;;;;;;;;13.72;100.00;95480.34;1052878;28;19916;-64
2021/08/05 00:49:18;;;;;;;;;;;;;;;13.71;100.00;95477.94;1053204;28;19936;-64
2021/08/05 00:49:48;;;;;;;;;;;;;;;13.72;100.00;95479.53;1051303;28;19924;-66
2021/08/05 00:50:19;;;;;;;;;;;;;;;13.72;100.00;95483.03;1050928;28;19927;-66
2021/08/05 00:50:49;;;;;;;;;;;;;;;13.73;100.00;95479.25;1050932;28;19958;-65
2021/08/05 00:51:20;;;;;;;;;;;;;;;13.73;100.00;95486.50;1046743;28;19968;-64
2021/08/05 00:51:50;;;;;;;;;;;;;;;13.73;100.00;95481.13;1047251;28;20047;-65
2021/08/05 00:52:20;;;;;;;;;;;;;;;13.72;100.00;95476.88;1042349;28;19909;-64
2021/08/05 00:52:50;;;;;;;;;;;;;;;13.72;100.00;95479.53;1041890;28;20007;-64
2021/08/05 00:53:21;;;;;;;;;;;;;;;13.72;100.00;95484.91;1042069;28;19928;-66
2021/08/05 00:53:51;;;;;;;;;;;;;;;13.72;100.00;95477.66;1038032;28;19918;-65
2021/08/05 00:54:21;;;;;;;;;;;;;;;13.72;100.00;95477.66;1042415;28;19913;-66
2021/08/05 00:54:52;;;;;;;;;;;;;;;13.70;100.00;95477.13;1042691;28;19963;-65
2021/08/05 00:55:22;;;;;;;;;;;;;;;13.71;100.00;95478.72;1046943;28;19941;-65
2021/08/05 00:55:52;;;;;;;;;;;;;;;13.72;100.00;95476.88;1047000;28;19959;-66
2021/08/05 00:56:22;;;;;;;;;;;;;;;13.72;100.00;95483.03;1047035;28;19909;-66
2021/08/05 00:56:53;;;;;;;;;;;;;;;13.73;100.00;95481.13;1047007;28;19916;-65
2021/08/05 00:57:23;;;;;;;;;;;;;;;13.69;100.00;95477.44;1047429;28;19909;-65
2021/08/05 00:57:55;;;;;;;;;;;;;;;13.69;100.00;95480.94;1046999;28;19917;-66
2021/08/05 00:58:25;;;;;;;;;;;;;;;13.68;100.00;95482.03;1042611;28;19905;-65
2021/08/05 00:58:55;;;;;;;;;;;;;;;13.66;100.00;95480.72;1042800;28;19913;-66
2021/08/05 00:59:26;;;;;;;;;;;;;;;13.65;100.00;95479.16;1042504;28;19932;-65
2021/08/05 00:59:56;;;;;;;;;;;;;;;13.63;100.00;95476.78;1042547;28;19917;-65
2021/08/05 01:00:26;;;;;;;;;;;;;;;13.63;100.00;95481.34;1047017;28;19945;-65
2021/08/05 01:00:58;;;;;;;;;;;;;;;13.63;100.00;95479.44;1050993;28;19919;-67
2021/08/05 01:01:41;;;;;;;;;;;;;;;13.64;100.00;95482.94;1046654;28;19916;-68
2021/08/05 01:02:12;;;;;;;;;;;;;;;13.62;100.00;95482.44;1046607;28;19916;-66
2021/08/05 01:03:02;;;;;;;;;;;;;;;13.60;100.00;95479.25;1044577;28;19963;-65
2021/08/05 01:03:34;;;;;;;;;;;;;;;13.60;100.00;95477.34;1046810;28;20341;-65
2021/08/05 01:04:05;;;;;;;;;;;;;;;13.59;100.00;95478.47;1052054;28;19936;-65
2021/08/05 01:04:36;;;;;;;;;;;;;;;13.59;100.00;95480.34;1055300;28;19916;-68
2021/08/05 01:05:06;;;;;;;;;;;;;;;13.59;100.00;95480.34;1050738;28;19913;-69
2021/08/05 01:05:39;;;;;;;;;;;;;;;13.59;100.00;95478.47;1046433;28;19972;-65
2021/08/05 01:06:28;;;;;;;;;;;;;;;13.58;100.00;95479.56;1042764;28;19913;-65
2021/08/05 01:07:03;;;;;;;;;;;;;;;13.59;100.00;95480.34;1045249;28;19917;-68
2021/08/05 01:07:36;;;;;;;;;;;;;;;13.56;100.00;95479.06;1046421;28;19920;-66
2021/08/05 01:08:10;;;;;;;;;;;;;;;13.55;100.00;95482.03;1054270;28;19912;-65
2021/08/05 01:08:41;;;;;;;;;;;;;;;13.55;100.00;95477.47;1054946;28;19912;-66
2021/08/05 01:09:21;;;;;;;;;;;;;;;13.58;100.00;95479.56;1050514;28;20292;-66
2021/08/05 01:10:11;;;;;;;;;;;;;;;13.59;100.00;95469.63;1048540;28;19931;-65
2021/08/05 01:10:43;;;;;;;;;;;;;;;13.58;100.00;95474.19;1044732;28;19921;-65
2021/08/05 01:11:16;;;;;;;;;;;;;;;13.57;100.00;95480.66;1049207;28;19912;-65
2021/08/05 01:11:50;;;;;;;;;;;;;;;13.58;100.00;95478.78;1044668;28;19913;-65
2021/08/05 01:12:33;;;;;;;;;;;;;;;13.59;100.00;95474.97;1048890;28;19913;-65
2021/08/05 01:13:14;;;;;;;;;;;;;;;13.59;100.00;95473.09;1044690;28;19923;-64
2021/08/05 01:13:52;;;;;;;;;;;;;;;13.55;100.00;95474.78;1044118;28;19921;-65
2021/08/05 01:14:22;;;;;;;;;;;;;;;13.56;100.00;95470.22;1040591;28;20290;-64
2021/08/05 01:14:59;;;;;;;;;;;;;;;13.53;100.00;95466.25;1043069;28;19944;-65
2021/08/05 01:15:30;;;;;;;;;;;;;;;13.52;100.00;95478.88;1046872;28;19971;-64
2021/08/05 01:16:00;;;;;;;;;;;;;;;13.53;100.00;95467.03;1044586;28;19921;-64
2021/08/05 01:16:31;;;;;;;;;;;;;;;13.54;100.00;95473.19;1048863;28;19913;-65
2021/08/05 01:17:01;;;;;;;;;;;;;;;13.56;100.00;95470.22;1048814;28;19912;-65
2021/08/05 01:17:33;;;;;;;;;;;;;;;13.56;100.00;95470.22;1044774;28;19917;-65
2021/08/05 01:18:07;;;;;;;;;;;;;;;13.56;100.00;95476.38;1048602;28;20281;-65
2021/08/05 01:18:37;;;;;;;;;;;;;;;13.53;100.00;95471.63;1040335;28;19921;-65
2021/08/05 01:19:27;;;;;;;;;;;;;;;13.49;100.00;95471.41;1040603;28;19913;-65
2021/08/05 01:19:58;;;;;;;;;;;;;;;13.48;100.00;95472.50;1040085;28;20036;-65
2021/08/05 01:20:29;;;;;;;;;;;;;;;13.51;100.00;95469.25;1042113;28;19913;-65
2021/08/05 01:21:01;;;;;;;;;;;;;;;13.51;100.00;95468.41;1044575;28;20377;-65
2021/08/05 01:21:36;;;;;;;;;;;;;;;13.50;100.00;95470.31;1040595;28;19924;-65
2021/08/05 01:22:09;;;;;;;;;;;;;;;13.49;100.00;95468.72;1041614;28;19909;-64
2021/08/05 01:22:47;;;;;;;;;;;;;;;13.50;100.00;95466.84;1040642;28;19917;-65
2021/08/05 01:23:23;;;;;;;;;;;;;;;13.50;100.00;95470.31;1042619;28;19924;-65
2021/08/05 01:23:53;;;;;;;;;;;;;;;13.46;100.00;95466.66;1044684;28;19921;-64
2021/08/05 01:24:24;;;;;;;;;;;;;;;13.44;100.00;95463.47;1042357;28;20007;-64
2021/08/05 01:24:59;;;;;;;;;;;;;;;13.45;100.00;95464.25;1044639;28;19919;-65
2021/08/05 01:25:41;;;;;;;;;;;;;;;13.45;100.00;95466.94;1044663;28;19917;-65
2021/08/05 01:26:24;;;;;;;;;;;;;;;13.46;100.00;95469.34;1042390;28;19973;-64
2021/08/05 01:26:56;;;;;;;;;;;;;;;13.47;100.00;95470.13;1044496;28;19924;-64
2021/08/05 01:27:26;;;;;;;;;;;;;;;13.47;100.00;95468.25;1044700;28;20091;-65
2021/08/05 01:27:56;;;;;;;;;;;;;;;13.47;100.00;95462.09;1046743;28;20019;-65
2021/08/05 01:28:26;;;;;;;;;;;;;;;13.47;100.00;95462.09;1044583;28;19924;-65
2021/08/05 01:28:57;;;;;;;;;;;;;;;13.47;100.00;95460.19;1048758;28;19964;-65
2021/08/05 01:29:28;;;;;;;;;;;;;;;13.46;100.00;95463.97;1044715;28;20468;-64
2021/08/05 01:29:59;;;;;;;;;;;;;;;13.47;100.00;95462.09;1044790;28;19913;-64
2021/08/05 01:30:29;;;;;;;;;;;;;;;13.47;100.00;95462.88;1044409;28;19920;-64
2021/08/05 01:31:00;;;;;;;;;;;;;;;13.47;100.00;95459.41;1044222;28;19913;-65
2021/08/05 01:31:30;;;;;;;;;;;;;;;13.45;100.00;95459.69;1048756;28;19998;-65
2021/08/05 01:32:01;;;;;;;;;;;;;;;13.43;100.00;95458.41;1044669;28;19913;-65
2021/08/05 01:32:32;;;;;;;;;;;;;;;13.43;100.00;95461.88;1044402;28;19923;-65
2021/08/05 01:33:03;;;;;;;;;;;;;;;13.42;100.00;95454.94;1040194;28;20305;-64
2021/08/05 01:33:33;;;;;;;;;;;;;;;13.43;100.00;95467.25;1040322;28;19913;-65
2021/08/05 01:34:03;;;;;;;;;;;;;;;13.44;100.00;95465.34;1040513;28;20013;-64
2021/08/05 01:34:34;;;;;;;;;;;;;;;13.45;100.00;95462.38;1040428;28;19919;-65
2021/08/05 01:35:04;;;;;;;;;;;;;;;13.45;100.00;95458.88;1036511;28;19910;-65
2021/08/05 01:35:34;;;;;;;;;;;;;;;13.45;100.00;95459.69;1040548;28;20054;-65
2021/08/05 01:36:05;;;;;;;;;;;;;;;13.45;100.00;95459.69;1040462;28;19909;-64
2021/08/05 01:36:35;;;;;;;;;;;;;;;13.45;100.00;95459.69;1040630;28;19997;-65
2021/08/05 01:37:06;;;;;;;;;;;;;;;13.46;100.00;95465.84;1044651;28;19993;-65
2021/08/05 01:37:36;;;;;;;;;;;;;;;13.41;100.00;95461.41;1040541;28;19920;-65
2021/08/05 01:38:06;;;;;;;;;;;;;;;13.38;100.00;95462.00;1036427;28;19910;-65
2021/08/05 01:38:37;;;;;;;;;;;;;;;13.36;100.00;95461.50;1032299;28;19913;-64
2021/08/05 01:39:07;;;;;;;;;;;;;;;13.37;100.00;95460.41;1036379;28;19913;-65
2021/08/05 01:39:38;;;;;;;;;;;;;;;13.38;100.00;95459.31;1040504;28;19969;-64
2021/08/05 01:40:08;;;;;;;;;;;;;;;13.37;100.00;95449.66;1044639;28;20439;-65
2021/08/05 01:40:38;;;;;;;;;;;;;;;13.38;100.00;95450.47;1040540;28;19948;-65
2021/08/05 01:41:09;;;;;;;;;;;;;;;13.39;100.00;95455.53;1044596;28;19913;-65
2021/08/05 01:41:39;;;;;;;;;;;;;;;13.40;100.00;95459.00;1044636;28;20365;-64
2021/08/05 01:42:09;;;;;;;;;;;;;;;13.40;100.00;95456.31;1040498;28;20382;-64
2021/08/05 01:42:40;;;;;;;;;;;;;;;13.36;100.00;95456.13;1044732;28;19912;-65
2021/08/05 01:43:10;;;;;;;;;;;;;;;13.37;100.00;95452.34;1040491;28;19917;-64
2021/08/05 01:43:40;;;;;;;;;;;;;;;13.37;100.00;95455.03;1040514;28;20421;-64
2021/08/05 01:44:11;;;;;;;;;;;;;;;13.39;100.00;95454.72;1040486;28;20440;-65
2021/08/05 01:44:42;;;;;;;;;;;;;;;13.40;100.00;95449.06;1040481;28;20012;-64
2021/08/05 01:45:13;;;;;;;;;;;;;;;13.40;100.00;95450.94;1044570;28;19913;-64
2021/08/05 01:45:43;;;;;;;;;;;;;;;13.37;100.00;95455.03;1040805;28;19909;-65
2021/08/05 01:46:14;;;;;;;;;;;;;;;13.37;100.00;95451.56;1040451;28;20319;-64
2021/08/05 01:46:44;;;;;;;;;;;;;;;13.34;100.00;95447.56;1040604;28;19909;-64
2021/08/05 01:47:14;;;;;;;;;;;;;;;13.36;100.00;95452.63;1036520;28;19913;-65
2021/08/05 01:47:45;;;;;;;;;;;;;;;13.36;100.00;95453.44;1036230;28;19909;-64
2021/08/05 01:48:15;;;;;;;;;;;;;;;13.39;100.00;95444.78;1040412;28;20285;-65
2021/08/05 01:48:46;;;;;;;;;;;;;;;13.40;100.00;95450.94;1040596;28;19917;-65
2021/08/05 01:49:16;;;;;;;;;;;;;;;13.39;100.00;95457.41;1044589;28;20002;-64
2021/08/05 01:49:47;;;;;;;;;;;;;;;13.39;100.00;95447.47;1045019;28;20376;-64
2021/08/05 01:50:17;;;;;;;;;;;;;;;13.42;100.00;95448.78;1036435;28;20417;-65
2021/08/05 01:50:47;;;;;;;;;;;;;;;13.42;100.00;95438.81;1036496;28;19913;-65
2021/08/05 01:51:21;;;;;;;;;;;;;;;13.41;100.00;95447.97;1036395;28;20371;-65
2021/08/05 01:51:51;;;;;;;;;;;;;;;13.42;100.00;95449.56;1036965;28;20479;-65
2021/08/05 01:52:21;;;;;;;;;;;;;;;13.40;100.00;95446.38;1041021;28;19929;-65
2021/08/05 01:52:51;;;;;;;;;;;;;;;13.42;100.00;95454.94;1044615;28;19949;-65
2021/08/05 01:53:22;;;;;;;;;;;;;;;13.40;100.00;95449.06;1044512;28;19924;-65
2021/08/05 01:53:52;;;;;;;;;;;;;;;13.40;100.00;95442.88;1044694;28;19913;-65
2021/08/05 01:54:22;;;;;;;;;;;;;;;13.37;100.00;95449.66;1044653;28;19909;-65
2021/08/05 01:54:53;;;;;;;;;;;;;;;13.39;100.00;95452.03;1044908;28;19916;-65
2021/08/05 01:55:23;;;;;;;;;;;;;;;13.41;100.00;95442.63;1044905;28;19959;-65
2021/08/05 01:55:53;;;;;;;;;;;;;;;13.42;100.00;95449.56;1040529;28;19916;-65
2021/08/05 01:56:24;;;;;;;;;;;;;;;13.45;100.00;95450.84;1043271;28;19948;-65
2021/08/05 01:56:54;;;;;;;;;;;;;;;13.44;100.00;95454.63;1044679;28;19913;-64
2021/08/05 01:57:24;;;;;;;;;;;;;;;13.43;100.00;95456.50;1044618;28;20437;-64
2021/08/05 01:57:57;;;;;;;;;;;;;;;13.44;100.00;95452.72;1049166;28;19908;-64
2021/08/05 01:58:27;;;;;;;;;;;;;;;13.43;100.00;95453.84;1049049;28;19908;-65
2021/08/05 01:58:59;;;;;;;;;;;;;;;13.41;100.00;95449.84;1049149;28;19909;-65
2021/08/05 01:59:30;;;;;;;;;;;;;;;13.41;100.00;95450.66;1049057;28;20332;-65
2021/08/05 02:00:00;;;;;;;;;;;;;;;13.40;100.00;95450.94;1048959;28;19909;-65
2021/08/05 02:00:30;;;;;;;;;;;;;;;13.39;100.00;95446.69;1048993;28;19909;-65
2021/08/05 02:01:00;;;;;;;;;;;;;;;13.38;100.00;95448.56;1049063;28;20431;-65
2021/08/05 02:01:31;;;;;;;;;;;;;;;13.39;100.00;95450.16;1049030;28;19908;-64
2021/08/05 02:02:02;;;;;;;;;;;;;;;13.37;100.00;95447.00;1049049;28;19995;-65
2021/08/05 02:02:32;;;;;;;;;;;;;;;13.39;100.00;95444.78;1049090;28;19912;-64
2021/08/05 02:03:03;;;;;;;;;;;;;;;13.39;100.00;95450.16;1048707;28;19909;-64
2021/08/05 02:03:33;;;;;;;;;;;;;;;13.37;100.00;95447.00;1048682;28;20366;-64
2021/08/05 02:04:15;;;;;;;;;;;;;;;13.37;100.00;95446.19;1044522;28;19913;-65
2021/08/05 02:05:05;;;;;;;;;;;;;;;13.38;100.00;95447.78;1044615;28;19981;-64
2021/08/05 02:05:49;;;;;;;;;;;;;;;13.40;100.00;95443.69;1044658;28;20420;-65
2021/08/05 02:06:19;;;;;;;;;;;;;;;13.43;100.00;95439.63;1040369;28;19959;-65
2021/08/05 02:06:59;;;;;;;;;;;;;;;13.42;100.00;95449.56;1044692;28;20058;-65
2021/08/05 02:07:51;;;;;;;;;;;;;;;13.42;100.00;95451.47;1044622;28;19996;-65
2021/08/05 02:08:22;;;;;;;;;;;;;;;13.41;100.00;95442.63;1052748;28;19951;-65
2021/08/05 02:08:54;;;;;;;;;;;;;;;13.40;100.00;95443.69;1044644;28;19913;-64
2021/08/05 02:09:25;;;;;;;;;;;;;;;13.41;100.00;95449.84;1048771;28;19905;-65
2021/08/05 02:10:07;;;;;;;;;;;;;;;13.40;100.00;95448.25;1048740;28;20258;-65
2021/08/05 02:10:39;;;;;;;;;;;;;;;13.41;100.00;95450.66;1050644;28;19912;-64
2021/08/05 02:11:09;;;;;;;;;;;;;;;13.40;100.00;95446.38;1050938;28;19915;-65
2021/08/05 02:11:40;;;;;;;;;;;;;;;13.43;100.00;95453.03;1044605;28;19951;-64
2021/08/05 02:12:11;;;;;;;;;;;;;;;13.43;100.00;95448.47;1040378;28;20416;-65
2021/08/05 02:12:47;;;;;;;;;;;;;;;13.40;100.00;95446.38;1040443;28;20287;-65
2021/08/05 02:13:17;;;;;;;;;;;;;;;13.40;100.00;95448.25;1036927;28;20051;-65
2021/08/05 02:13:47;;;;;;;;;;;;;;;13.41;100.00;95447.16;1041308;28;20356;-65
2021/08/05 02:14:19;;;;;;;;;;;;;;;13.41;100.00;95442.63;1044517;28;19920;-64
2021/08/05 02:14:50;;;;;;;;;;;;;;;13.41;100.00;95442.63;1040728;28;20274;-64
2021/08/05 02:15:20;;;;;;;;;;;;;;;13.41;100.00;95444.47;1040374;28;19913;-65
2021/08/05 02:15:51;;;;;;;;;;;;;;;13.42;100.00;95448.78;1040505;28;19913;-64
2021/08/05 02:16:22;;;;;;;;;;;;;;;13.40;100.00;95448.25;1040414;28;19999;-64
2021/08/05 02:16:52;;;;;;;;;;;;;;;13.38;100.00;95450.47;1040668;28;19913;-64
2021/08/05 02:17:22;;;;;;;;;;;;;;;13.36;100.00;95448.09;1040484;28;19919;-64
2021/08/05 02:17:53;;;;;;;;;;;;;;;13.36;100.00;95444.59;1040550;28;20379;-64
2021/08/05 02:18:25;;;;;;;;;;;;;;;13.37;100.00;95448.88;1036231;28;19960;-65
2021/08/05 02:18:55;;;;;;;;;;;;;;;13.37;100.00;95447.00;1036688;28;20331;-65
2021/08/05 02:19:25;;;;;;;;;;;;;;;13.37;100.00;95448.88;1036696;28;19967;-65
2021/08/05 03:16:41;;;;;;;;;;;;;;;13.64;100.00;95438.06;1052647;27;20853;-62
2021/08/05 03:17:12;;;;;;;14.03;8.97;;;;;;;13.64;100.00;95440.75;1052225;28;19920;-63
2021/08/05 03:17:43;;;;;;;16.95;10.15;;;;;;;13.67;100.00;95434.00;1052123;28;20028;-64
2021/08/05 03:18:13;;;;;;;12.97;9.43;;;;;;;13.64;100.00;95430.03;1052061;28;20024;-64
2021/08/05 03:18:43;;;;;;;15.47;10.33;;;;;;;13.65;100.00;95436.19;1052222;28;20027;-64
2021/08/05 03:19:14;;;;;;;16.13;9.43;;;;;;;13.65;100.00;95442.34;1052094;28;20031;-64
2021/08/05 03:19:44;;;;;;;14.87;9.83;;;;;;;13.66;100.00;95435.09;1052149;28;20031;-65
2021/08/05 03:20:18;;;;;;;15.50;9.33;;;;;;;13.65;100.00;95433.50;1052136;28;20016;-64
2021/08/05 03:20:48;;;;;;;12.63;8.02;;;;;;;13.62;100.00;95437.59;1052153;28;20032;-64
2021/08/05 03:21:18;;;;;;;10.97;7.70;;;;;;;13.59;100.00;95427.44;1052005;28;20036;-64
2021/08/05 03:21:49;;;;;;;11.37;7.43;;;;;;;13.56;100.00;95432.63;1052199;28;20032;-65
2021/08/05 03:22:19;;;;;;;10.93;7.10;;;;;;;13.50;100.00;95430.03;1052081;28;20028;-64
2021/08/05 03:22:50;;;;;;;9.07;6.67;;;;;;;13.48;100.00;95434.16;1052072;28;20032;-64
2021/08/05 03:23:20;;;;;;;13.53;6.90;;;;;;;13.52;100.00;95433.25;1052155;28;20415;-64
2021/08/05 03:23:50;;;;;;;11.33;7.27;;;;;;;13.54;100.00;95432.94;1052050;28;20040;-64
2021/08/05 03:24:21;;;;;;;11.63;7.80;;;;;;;13.57;100.00;95434.22;1052033;28;20024;-64
2021/08/05 03:24:51;;;;;;;10.67;6.70;;;;;;;13.57;100.00;95429.66;1052161;28;20048;-64
2021/08/05 03:25:22;;;;;;;9.80;6.70;;;;;;;13.58;100.00;95431.22;1052052;28;20028;-64
2021/08/05 03:25:52;;;;;;;13.60;7.37;;;;;;;13.57;100.00;95431.56;1051989;28;20044;-64
2021/08/05 03:26:22;;;;;;;11.03;6.80;;;;;;;13.59;100.00;95430.13;1051566;28;20059;-64
2021/08/05 03:26:53;;;;;;;14.00;7.67;;;;;;;13.55;100.00;95431.81;1047626;28;20033;-64
2021/08/05 03:27:23;;;;;;;12.27;7.10;;;;;;;13.58;100.00;95431.22;1047659;28;20393;-65
2021/08/05 03:27:54;;;;;;;12.13;7.10;;;;;;;13.59;100.00;95437.41;1047712;28;20028;-65
2021/08/05 03:28:25;;;;;;;9.13;6.57;;;;;;;13.58;100.00;95438.50;1047702;28;20056;-65
2021/08/05 03:28:55;;;;;;;12.83;7.10;;;;;;;13.52;100.00;95430.56;1052188;28;20032;-65
2021/08/05 03:29:26;;;;;;;11.77;7.43;;;;;;;13.55;100.00;95431.81;1052145;28;20453;-64
2021/08/05 03:29:56;;;;;;;10.10;6.87;;;;;;;13.57;100.00;95432.34;1052213;28;20020;-64
2021/08/05 03:30:26;;;;;;;11.67;7.03;;;;;;;13.59;100.00;95427.44;1052006;28;20028;-65
2021/08/05 03:30:57;;;;;;;11.80;6.83;;;;;;;13.57;100.00;95431.56;1051711;28;20017;-65
2021/08/05 03:31:27;;;;;;;12.57;6.43;;;;;;;13.58;100.00;95430.44;1051735;28;20028;-65
2021/08/05 03:31:58;;;;;;;9.33;6.93;;;;;;;13.57;100.00;95428.88;1051876;28;20028;-64
2021/08/05 03:32:28;;;;;;;15.17;7.07;;;;;;;13.56;100.00;95428.03;1055932;28;20020;-64
2021/08/05 03:33:00;;;;;;;10.07;7.00;;;;;;;13.55;100.00;95431.03;1060301;28;20025;-65
2021/08/05 03:33:30;;;;;;;9.75;6.38;;;;;;;13.52;100.00;95433.25;1060208;28;20035;-65
2021/08/05 03:34:01;;;;;;;9.57;6.27;;;;;;;13.51;100.00;95428.97;1059825;28;20026;-65
2021/08/05 03:34:31;;;;;;;9.77;5.97;;;;;;;13.48;100.00;95432.25;1051985;28;20468;-64
2021/08/05 03:35:02;;;;;;;8.83;5.87;;;;;;;13.52;100.00;95433.25;1052096;28;20077;-64
2021/08/05 03:35:32;;;;;;;8.93;5.93;;;;;;;13.49;100.00;95431.16;1052103;28;20157;-64
2021/08/05 03:36:03;;;;;;;10.17;6.10;;;;;;;13.51;100.00;95433.53;1052020;28;20024;-63